^^
Meteo Knjazevac Station Historical Data
Daily Summary for January 5, 2022 Units:  Metric    English   Both
Daily Weekly Monthly Yearly Custom
  High: Low: Average:
Temperature: 34.9 °C 13.1 °C 24.3 °C
Dew Point: 17.9 °C 11.7 °C 15.2 °C
Humidity: 93% 33.9% 61%
Wind Speed: 17.5km/h 0km/h 5.8km/h
Wind Gust: 20.9km/h - -
Wind- - SSW
Pressure: 1017.8 hPa 1013.8 hPa -
Precipitation: 0 mm    
Historical Graphs
 
 
Tabular Data for January 5, 2022
Time Temperature Dew Point Pressure Wind Wind Speed Wind Gust Humidity Rainfall Rate (Hourly) solar Conditions
00:04 17.8 °C 13.8 °C 1017.8 hPa WSW 2.4 km/h 3.2 km/h 77.7% 0 mm 0 W/m2
00:09 17.6 °C 13.7 °C 1017.8 hPa WNW 4.2 km/h 4.8 km/h 78% 0 mm 0 W/m2
00:14 17.6 °C 13.7 °C 1017.8 hPa NW 4.2 km/h 2.9 km/h 78% 0 mm 0 W/m2
00:19 17.5 °C 13.6 °C 1017.8 hPa NNW 2.7 km/h 4.8 km/h 78% 0 mm 0 W/m2
00:24 17.5 °C 13.6 °C 1017.8 hPa NW 3.5 km/h 4.8 km/h 78% 0 mm 0 W/m2
00:29 17.5 °C 13.7 °C 1017.8 hPa NW 3.4 km/h 2.1 km/h 78.6% 0 mm 0 W/m2
00:34 17.4 °C 13.8 °C 1017.8 hPa NW 1.8 km/h 3.2 km/h 79% 0 mm 0 W/m2
00:39 17.4 °C 13.7 °C 1017.8 hPa NW 2.9 km/h 3.2 km/h 79% 0 mm 0 W/m2
00:44 17.3 °C 13.7 °C 1017.8 hPa NW 2.4 km/h 3.2 km/h 79% 0 mm 0 W/m2
00:49 17.2 °C 13.6 °C 1017.8 hPa WNW 3.4 km/h 3.2 km/h 79.4% 0 mm 0 W/m2
00:54 17.2 °C 13.5 °C 1017.8 hPa West 2.3 km/h 3.2 km/h 79.1% 0 mm 0 W/m2
00:59 16.9 °C 13.5 °C 1017.8 hPa West 3.1 km/h 3.2 km/h 80% 0 mm 0 W/m2
01:04 16.8 °C 13.4 °C 1017.8 hPa NW 1.6 km/h 3.2 km/h 80% 0 mm 0 W/m2
01:09 16.7 °C 13.4 °C 1017.8 hPa NW 2.4 km/h 3.2 km/h 80.8% 0 mm 0 W/m2
01:14 16.6 °C 13.2 °C 1017.8 hPa West 3.2 km/h 3.2 km/h 80.7% 0 mm 0 W/m2
01:19 16.4 °C 13.1 °C 1017.8 hPa West 3.5 km/h 3.2 km/h 81% 0 mm 0 W/m2
01:24 16.3 °C 13.3 °C 1017.8 hPa WNW 3.5 km/h 3.2 km/h 82.6% 0 mm 0 W/m2
01:29 16.2 °C 13.3 °C 1017.8 hPa WNW 1.9 km/h 4.8 km/h 82.9% 0 mm 0 W/m2
01:34 16.1 °C 13.2 °C 1017.8 hPa WNW 2.3 km/h 2.1 km/h 83% 0 mm 0 W/m2
01:39 16 °C 13.1 °C 1017.8 hPa WNW 2.3 km/h 3.2 km/h 83% 0 mm 0 W/m2
01:44 15.9 °C 13.1 °C 1017.8 hPa NW 2.3 km/h 3.2 km/h 83.3% 0 mm 0 W/m2
01:49 15.8 °C 13 °C 1017.8 hPa WNW 3.4 km/h 3.2 km/h 83.4% 0 mm 0 W/m2
01:54 15.7 °C 13 °C 1017.8 hPa West 1.9 km/h 1.8 km/h 84% 0 mm 0 W/m2
01:59 15.6 °C 12.8 °C 1017.8 hPa WNW 3.1 km/h 3.2 km/h 84% 0 mm 0 W/m2
02:04 15.4 °C 12.7 °C 1017.8 hPa WNW 3.4 km/h 3.2 km/h 84.1% 0 mm 0 W/m2
02:09 15.3 °C 12.8 °C 1017.8 hPa WSW 3.7 km/h 3.2 km/h 85% 0 mm 0 W/m2
02:14 15.2 °C 12.7 °C 1017.8 hPa West 5.8 km/h 5.8 km/h 85% 0 mm 0 W/m2
02:19 15.2 °C 12.7 °C 1017.8 hPa West 7.4 km/h 5.8 km/h 85% 0 mm 0 W/m2
02:24 15.2 °C 12.7 °C 1017.8 hPa West 6.3 km/h 8 km/h 85% 0 mm 0 W/m2
02:29 15.2 °C 12.7 °C 1017.8 hPa West 4.2 km/h 8 km/h 85% 0 mm 0 W/m2
02:34 15.3 °C 12.8 °C 1017.8 hPa West 4.2 km/h 4.8 km/h 85% 0 mm 0 W/m2
02:39 15.3 °C 12.7 °C 1017.8 hPa West 4.5 km/h 3.2 km/h 85% 0 mm 0 W/m2
02:44 15.3 °C 12.8 °C 1017.8 hPa West 5.3 km/h 4.8 km/h 85% 0 mm 0 W/m2
02:49 15.2 °C 12.7 °C 1017.8 hPa West 5.8 km/h 4.8 km/h 85% 0 mm 0 W/m2
02:54 15.2 °C 12.7 °C 1017.8 hPa West 5.6 km/h 6.4 km/h 85% 0 mm 0 W/m2
02:59 15.2 °C 12.7 °C 1017.8 hPa West 6.1 km/h 6.4 km/h 85% 0 mm 0 W/m2
03:04 15.1 °C 12.6 °C 1017.8 hPa West 6.3 km/h 5.8 km/h 85% 0 mm 0 W/m2
03:09 15.1 °C 12.6 °C 1017.8 hPa West 5.3 km/h 8 km/h 85% 0 mm 0 W/m2
03:14 15 °C 12.7 °C 1017.8 hPa West 3.2 km/h 4.8 km/h 86% 0 mm 0 W/m2
03:19 14.9 °C 12.6 °C 1017.8 hPa West 2.7 km/h 2.6 km/h 86% 0 mm 0 W/m2
03:24 14.8 °C 12.5 °C 1017.8 hPa West 2.1 km/h 3.2 km/h 86% 0 mm 0 W/m2
03:29 14.7 °C 12.4 °C 1017.8 hPa WNW 2.4 km/h 2.1 km/h 86% 0 mm 0 W/m2
03:34 14.6 °C 12.2 °C 1017.8 hPa WNW 3.5 km/h 3.2 km/h 86% 0 mm 0 W/m2
03:39 14.4 °C 12.4 °C 1017.8 hPa West 3.1 km/h 3.2 km/h 87.7% 0 mm 0 W/m2
03:44 14.3 °C 12.3 °C 1017.8 hPa WNW 1.6 km/h 3.2 km/h 88% 0 mm 0 W/m2
03:49 14.2 °C 12.2 °C 1017.8 hPa NNW 1.4 km/h 3.2 km/h 88% 0 mm 0 W/m2
03:54 14.2 °C 12.3 °C 1017.8 hPa NW 2.1 km/h 3.2 km/h 88.9% 0 mm 0 W/m2
03:59 14 °C 12.2 °C 1017.8 hPa WNW 2.9 km/h 3.2 km/h 89% 0 mm 0 W/m2
04:04 14 °C 12.2 °C 1017.8 hPa WNW 2.1 km/h 3.2 km/h 89% 0 mm 0 W/m2
04:09 14 °C 12.2 °C 1017.8 hPa WNW 3.2 km/h 3.2 km/h 89% 0 mm 0 W/m2
04:14 13.9 °C 12.1 °C 1017.8 hPa WNW 2.6 km/h 3.2 km/h 89% 0 mm 0 W/m2
04:19 13.8 °C 12.1 °C 1017.8 hPa WNW 3.7 km/h 3.2 km/h 89% 0 mm 0 W/m2
04:24 13.8 °C 12.1 °C 1017.8 hPa West 5.8 km/h 4.7 km/h 89.4% 0 mm 0 W/m2
04:29 13.8 °C 12.2 °C 1017.8 hPa West 6.8 km/h 8 km/h 90% 0 mm 0 W/m2
04:34 13.8 °C 12.2 °C 1017.8 hPa West 7.6 km/h 6.4 km/h 90% 0 mm 0 W/m2
04:39 13.8 °C 12.2 °C 1017.8 hPa West 7.2 km/h 6.4 km/h 90% 0 mm 0 W/m2
04:44 13.8 °C 12.2 °C 1017.8 hPa WSW 4.3 km/h 3.2 km/h 90% 0 mm 0 W/m2
04:49 13.7 °C 12.1 °C 1017.8 hPa WSW 4 km/h 4.8 km/h 90% 0 mm 0 W/m2
04:54 13.7 °C 12.1 °C 1017.8 hPa West 5 km/h 4.8 km/h 90% 0 mm 0 W/m2
04:59 13.7 °C 12.1 °C 1017.8 hPa WNW 4.8 km/h 4.8 km/h 90% 0 mm 0 W/m2
05:04 13.7 °C 12.1 °C 1017.8 hPa West 5 km/h 4.8 km/h 90% 0 mm 0 W/m2
05:09 13.6 °C 12 °C 1017.8 hPa West 5.6 km/h 4 km/h 90% 0 mm 0 W/m2
05:14 13.6 °C 11.9 °C 1017.8 hPa West 3.7 km/h 4.8 km/h 90% 0 mm 1 W/m2
05:19 13.4 °C 11.8 °C 1017.8 hPa West 3.7 km/h 3.2 km/h 90% 0 mm 2 W/m2
05:24 13.4 °C 11.8 °C 1017.8 hPa West 2.4 km/h 2.6 km/h 90% 0 mm 4 W/m2
05:29 13.3 °C 11.7 °C 1017.8 hPa West 3.5 km/h 3.2 km/h 90% 0 mm 6 W/m2
05:34 13.3 °C 11.8 °C 1017.8 hPa West 2.4 km/h 3.2 km/h 90.9% 0 mm 10 W/m2
05:39 13.2 °C 11.8 °C 1017.8 hPa WNW 1.6 km/h 3.2 km/h 91% 0 mm 12 W/m2
05:44 13.2 °C 11.8 °C 1017.8 hPa NW 1.6 km/h 1.6 km/h 91% 0 mm 16 W/m2
05:49 13.1 °C 11.7 °C 1017.8 hPa NNW 1.9 km/h 3.2 km/h 91% 0 mm 21 W/m2
05:54 13.1 °C 11.7 °C 1017.8 hPa WNW 4.2 km/h 4.3 km/h 91% 0 mm 25 W/m2
05:59 13.1 °C 11.7 °C 1017.8 hPa WSW 6 km/h 6.4 km/h 91% 0 mm 30 W/m2
06:04 13.1 °C 11.7 °C 1017.8 hPa WSW 6.4 km/h 8 km/h 91% 0 mm 39 W/m2
06:09 13.1 °C 11.7 °C 1017.8 hPa West 5.5 km/h 8 km/h 91% 0 mm 53 W/m2
06:14 13.1 °C 11.7 °C 1017.8 hPa West 5.6 km/h 6.4 km/h 91% 0 mm 61 W/m2
06:19 13.2 °C 11.8 °C 1017.8 hPa West 4.3 km/h 6.4 km/h 91.4% 0 mm 73 W/m2
06:24 13.2 °C 12.1 °C 1017.8 hPa WNW 4.7 km/h 3.5 km/h 92.7% 0 mm 85 W/m2
06:29 13.3 °C 12.2 °C 1017.8 hPa NW 3.5 km/h 6.4 km/h 93% 0 mm 96 W/m2
06:34 13.4 °C 12.3 °C 1017.8 hPa NW 2.7 km/h 3.2 km/h 93% 0 mm 109 W/m2
06:39 13.5 °C 12.1 °C 1017.8 hPa NW 1.6 km/h 3.2 km/h 91% 0 mm 121 W/m2
06:44 13.6 °C 12.2 °C 1017.8 hPa NNW 0.5 km/h 1.6 km/h 91% 0 mm 135 W/m2
06:49 13.6 °C 12.2 °C 1017.8 hPa NNW 1.4 km/h 1.6 km/h 91% 0 mm 146 W/m2
06:54 13.7 °C 12.3 °C 1017.8 hPa Calm   1.6 km/h 91% 0 mm 162 W/m2
06:59 13.8 °C 12.3 °C 1017.8 hPa WSW 3.1 km/h 1.4 km/h 91% 0 mm 176 W/m2
07:04 13.9 °C 12.5 °C 1017.8 hPa WNW 3.5 km/h 3.2 km/h 91% 0 mm 190 W/m2
07:09 14.2 °C 12.7 °C 1017.8 hPa NW 3.7 km/h 3.2 km/h 91% 0 mm 205 W/m2
07:14 14.4 °C 13 °C 1017.8 hPa NW 3.5 km/h 4.8 km/h 91% 0 mm 217 W/m2
07:19 14.7 °C 13.2 °C 1017.8 hPa WNW 2.1 km/h 3.2 km/h 90.7% 0 mm 235 W/m2
07:24 15 °C 13.4 °C 1017.8 hPa West 4 km/h 4.3 km/h 90% 0 mm 251 W/m2
07:29 15.3 °C 13.6 °C 1017.8 hPa West 4.3 km/h 4.8 km/h 90% 0 mm 266 W/m2
07:34 15.5 °C 13.7 °C 1017.8 hPa West 3.7 km/h 4.8 km/h 89.1% 0 mm 283 W/m2
07:39 15.8 °C 13.8 °C 1017.8 hPa West 4.3 km/h 3.2 km/h 88.3% 0 mm 298 W/m2
07:44 16.1 °C 14.1 °C 1017.8 hPa WNW 3.7 km/h 4.8 km/h 88% 0 mm 316 W/m2
07:49 16.3 °C 14.2 °C 1017.8 hPa WNW 2.4 km/h 3.2 km/h 87% 0 mm 332 W/m2
07:54 16.6 °C 14.3 °C 1017.8 hPa NW 1.6 km/h 1.6 km/h 86% 0 mm 350 W/m2
07:59 16.9 °C 14.4 °C 1017.8 hPa Calm   3.2 km/h 85.1% 0 mm 369 W/m2
08:04 17.2 °C 14.6 °C 1017.8 hPa NNW 2.7 km/h 1.4 km/h 85% 0 mm 389 W/m2
08:09 17.6 °C 15.1 °C 1017.8 hPa NW 2.7 km/h 2.1 km/h 85% 0 mm 409 W/m2
08:14 18.1 °C 15.2 °C 1017.8 hPa WSW 2.9 km/h 1.8 km/h 83.7% 0 mm 420 W/m2
08:19 18.3 °C 15.4 °C 1017.8 hPa SW 1.9 km/h 3.2 km/h 83% 0 mm 444 W/m2
08:24 18.7 °C 15.4 °C 1017.8 hPa West 2.7 km/h 1.6 km/h 81.3% 0 mm 461 W/m2
08:29 18.9 °C 15.4 °C 1017.8 hPa NW 3.4 km/h 3.2 km/h 80% 0 mm 478 W/m2
08:34 19.7 °C 15.7 °C 1017.8 hPa North 3.5 km/h 3.2 km/h 77.3% 0 mm 493 W/m2
08:39 20.6 °C 15.7 °C 1017.8 hPa NE 5.8 km/h 4.8 km/h 73.4% 0 mm 510 W/m2
08:44 21.2 °C 16 °C 1017.8 hPa NE 6.6 km/h 6.4 km/h 72.3% 0 mm 528 W/m2
08:49 21.7 °C 16 °C 1017.8 hPa NE 7.9 km/h 8 km/h 70.1% 0 mm 544 W/m2
08:54 22.1 °C 16.1 °C 1017.8 hPa NE 6.9 km/h 5.5 km/h 68.6% 0 mm 559 W/m2
08:59 22.4 °C 16.1 °C 1017.8 hPa NE 7.6 km/h 9.7 km/h 67.4% 0 mm 574 W/m2
09:04 22.7 °C 16.2 °C 1017.8 hPa East 8.7 km/h 6.4 km/h 66.5% 0 mm 589 W/m2
09:09 23.2 °C 16.3 °C 1017.8 hPa East 7.9 km/h 9.7 km/h 65.4% 0 mm 606 W/m2
09:14 23.6 °C 16.6 °C 1017.8 hPa ENE 7.7 km/h 9.7 km/h 64.8% 0 mm 617 W/m2
09:19 23.9 °C 16.7 °C 1017.8 hPa NE 9 km/h 9.7 km/h 64.2% 0 mm 638 W/m2
09:24 24.4 °C 17.1 °C 1017.8 hPa NNE 7.1 km/h 11.3 km/h 63.8% 0 mm 652 W/m2
09:29 24.9 °C 17.4 °C 1017.8 hPa NE 8.7 km/h 8 km/h 63.2% 0 mm 663 W/m2
09:34 25.2 °C 17.2 °C 1017.8 hPa NE 7.1 km/h 11.3 km/h 61.1% 0 mm 679 W/m2
09:39 25.4 °C 16.8 °C 1017.8 hPa NE 8.7 km/h 11.3 km/h 58.9% 0 mm 690 W/m2
09:44 25.5 °C 16.7 °C 1017.8 hPa ENE 8.4 km/h 11.3 km/h 58.1% 0 mm 704 W/m2
09:49 25.7 °C 16.4 °C 1017.8 hPa ENE 6.9 km/h 9.7 km/h 56.7% 0 mm 718 W/m2
09:54 25.9 °C 16.3 °C 1017.8 hPa ENE 9.2 km/h 12.6 km/h 55.3% 0 mm 734 W/m2
09:59 26.2 °C 16.2 °C 1017.8 hPa ENE 10.8 km/h 14.5 km/h 54.1% 0 mm 745 W/m2
10:04 26.7 °C 16.6 °C 1017.8 hPa NE 10.8 km/h 14.5 km/h 54.2% 0 mm 758 W/m2
10:09 26.9 °C 16.6 °C 1017.5 hPa ENE 10.5 km/h 12.9 km/h 53.3% 0 mm 770 W/m2
10:14 27.3 °C 16.9 °C 1017.5 hPa ENE 7.2 km/h 11.3 km/h 53.1% 0 mm 784 W/m2
10:19 27.7 °C 17.1 °C 1017.5 hPa ENE 10.5 km/h 11.3 km/h 52.6% 0 mm 795 W/m2
10:24 27.9 °C 16.8 °C 1017.5 hPa NE 11.4 km/h 11.3 km/h 50.7% 0 mm 803 W/m2
10:29 28.2 °C 17.2 °C 1017.5 hPa NE 9.7 km/h 6.8 km/h 51.5% 0 mm 813 W/m2
10:34 28.5 °C 16.9 °C 1017.5 hPa NE 11.3 km/h 11.3 km/h 49.3% 0 mm 821 W/m2
10:39 28.7 °C 17.1 °C 1017.5 hPa NE 11.9 km/h 14.5 km/h 49.6% 0 mm 836 W/m2
10:44 29.1 °C 17.9 °C 1017.5 hPa NE 6.8 km/h 14.5 km/h 51.2% 0 mm 838 W/m2
10:49 29.5 °C 17.6 °C 1017.5 hPa NNE 8.9 km/h 5.5 km/h 48.9% 0 mm 772 W/m2
10:54 29.7 °C 17.7 °C 1017.2 hPa NE 9.7 km/h 9.7 km/h 48.6% 0 mm 858 W/m2
10:59 29.7 °C 17.2 °C 1017.2 hPa ENE 13 km/h 11.3 km/h 47.3% 0 mm 870 W/m2
11:04 29.7 °C 17.4 °C 1017.2 hPa East 13.5 km/h 8.7 km/h 47.9% 0 mm 880 W/m2
11:09 29.8 °C 17.4 °C 1017.2 hPa East 14 km/h 16.1 km/h 47.3% 0 mm 880 W/m2
11:14 30 °C 17.6 °C 1017.2 hPa East 17.5 km/h 20.9 km/h 47.4% 0 mm 286 W/m2
11:19 30.3 °C 17.4 °C 1017.2 hPa ENE 10.1 km/h 20.9 km/h 46.2% 0 mm 821 W/m2
11:24 30.3 °C 17.3 °C 1017.2 hPa NE 11.1 km/h 11.3 km/h 45.4% 0 mm 583 W/m2
11:29 30.5 °C 17.6 °C 1017.2 hPa NE 10.8 km/h 10.1 km/h 46.2% 0 mm 698 W/m2
11:34 30.8 °C 17.6 °C 1017.2 hPa NE 8.7 km/h 8.7 km/h 45.3% 0 mm 376 W/m2
11:39 31.1 °C 17.7 °C 1016.8 hPa NE 9.7 km/h 11.3 km/h 44.8% 0 mm 519 W/m2
11:44 31.2 °C 17.9 °C 1016.8 hPa NE 8.2 km/h 12.9 km/h 45.1% 0 mm 860 W/m2
11:49 31.3 °C 17.6 °C 1016.8 hPa ENE 13.8 km/h 11.9 km/h 43.8% 0 mm 940 W/m2
11:54 31.6 °C 17.9 °C 1016.8 hPa NE 10 km/h 16.1 km/h 44.3% 0 mm 944 W/m2
11:59 31.7 °C 17.9 °C 1016.8 hPa NNE 10.6 km/h 11.3 km/h 43.8% 0 mm 950 W/m2
12:04 31.9 °C 17.9 °C 1016.8 hPa NNE 11.1 km/h 6.8 km/h 43.2% 0 mm 953 W/m2
12:09 32.2 °C 17.8 °C 1016.5 hPa North 12.9 km/h 7.9 km/h 42.3% 0 mm 959 W/m2
12:14 32.5 °C 17.7 °C 1016.5 hPa North 14.2 km/h 12.9 km/h 41.5% 0 mm 960 W/m2
12:19 32.6 °C 17.2 °C 1016.5 hPa North 12.1 km/h 16.1 km/h 39.8% 0 mm 960 W/m2
12:24 32.6 °C 16.7 °C 1016.5 hPa North 10.5 km/h 12.9 km/h 38.8% 0 mm 960 W/m2
12:29 32.6 °C 16.9 °C 1016.5 hPa North 10.1 km/h 11.3 km/h 39.2% 0 mm 960 W/m2
12:34 32.9 °C 16.9 °C 1016.5 hPa North 7.7 km/h 12.9 km/h 38.6% 0 mm 937 W/m2
12:39 33.1 °C 17.1 °C 1016.1 hPa NNW 11.9 km/h 12.9 km/h 38.7% 0 mm 948 W/m2
12:44 33 °C 16.7 °C 1016.1 hPa North 16.6 km/h 12.6 km/h 37.7% 0 mm 954 W/m2
12:49 33.1 °C 17.1 °C 1016.1 hPa NNE 12.6 km/h 20.9 km/h 38.5% 0 mm 960 W/m2
12:54 33.2 °C 16.8 °C 1016.1 hPa NNE 14 km/h 12.9 km/h 37.5% 0 mm 960 W/m2
12:59 33.2 °C 16.7 °C 1016.1 hPa NNE 9.5 km/h 17.7 km/h 37.4% 0 mm 960 W/m2
13:04 33.2 °C 16.6 °C 1016.1 hPa NNE 8.9 km/h 7.6 km/h 37.2% 0 mm 960 W/m2
13:09 33.2 °C 16.8 °C 1016.1 hPa ENE 9.8 km/h 9.7 km/h 37.8% 0 mm 959 W/m2
13:14 33.2 °C 16.7 °C 1015.8 hPa SSE 9 km/h 11.3 km/h 37.4% 0 mm 959 W/m2
13:19 33.1 °C 16.6 °C 1015.8 hPa SSW 7.6 km/h 9.7 km/h 37.5% 0 mm 959 W/m2
13:24 33.1 °C 16.6 °C 1015.8 hPa SE 10.1 km/h 9 km/h 37.3% 0 mm 941 W/m2
13:29 33.1 °C 16.7 °C 1015.8 hPa NE 5.8 km/h 11.3 km/h 37.8% 0 mm 945 W/m2
13:34 33.2 °C 16.6 °C 1015.8 hPa SW 9 km/h 8 km/h 37.2% 0 mm 945 W/m2
13:39 32.9 °C 16.4 °C 1015.8 hPa South 11.6 km/h 11.3 km/h 37.3% 0 mm 946 W/m2
13:44 32.9 °C 16.1 °C 1015.8 hPa South 8.9 km/h 12.9 km/h 36.6% 0 mm 955 W/m2
13:49 33.1 °C 16.9 °C 1015.5 hPa South 5.6 km/h 9.7 km/h 38% 0 mm 955 W/m2
13:54 33.6 °C 17 °C 1015.5 hPa West 10.6 km/h 6.8 km/h 37.4% 0 mm 940 W/m2
13:59 33.8 °C 17.1 °C 1015.5 hPa North 7.7 km/h 11.3 km/h 37% 0 mm 917 W/m2
14:04 33.8 °C 17.5 °C 1015.5 hPa NNE 7.6 km/h 8 km/h 38% 0 mm 905 W/m2
14:09 33.9 °C 17.2 °C 1015.5 hPa NE 12.4 km/h 9.7 km/h 37% 0 mm 899 W/m2
14:14 33.9 °C 16.8 °C 1015.5 hPa NE 8.9 km/h 12.9 km/h 36.3% 0 mm 885 W/m2
14:19 33.8 °C 16.8 °C 1015.5 hPa ENE 10.6 km/h 12.9 km/h 36.5% 0 mm 890 W/m2
14:24 33.8 °C 17.1 °C 1015.5 hPa East 10.9 km/h 7.2 km/h 36.8% 0 mm 890 W/m2
14:29 34.1 °C 17.1 °C 1015.5 hPa NE 10.5 km/h 11.3 km/h 36.6% 0 mm 898 W/m2
14:34 34.2 °C 16.9 °C 1015.5 hPa NNW 12.9 km/h 11.3 km/h 35.9% 0 mm 898 W/m2
14:39 34.3 °C 16.7 °C 1015.1 hPa NW 8.4 km/h 14.5 km/h 35.1% 0 mm 893 W/m2
14:44 34.3 °C 16.7 °C 1015.1 hPa NNW 6.8 km/h 9.7 km/h 35% 0 mm 873 W/m2
14:49 34.4 °C 16.6 °C 1015.1 hPa NW 8.4 km/h 8 km/h 34.6% 0 mm 836 W/m2
14:54 34.3 °C 16.1 °C 1015.1 hPa SW 8.2 km/h 9.7 km/h 33.9% 0 mm 818 W/m2
14:59 34.2 °C 17.3 °C 1015.1 hPa South 6.9 km/h 9.7 km/h 36.6% 0 mm 816 W/m2
15:04 34.5 °C 16.5 °C 1015.1 hPa SW 7.7 km/h 11.3 km/h 34.3% 0 mm 816 W/m2
15:09 34.5 °C 16.6 °C 1014.8 hPa SW 9 km/h 8 km/h 34.6% 0 mm 813 W/m2
15:14 34.4 °C 16.6 °C 1014.8 hPa SE 6.8 km/h 4.7 km/h 34.6% 0 mm 794 W/m2
15:19 34.6 °C 17.1 °C 1014.8 hPa NE 6.4 km/h 8 km/h 35.5% 0 mm 805 W/m2
15:24 34.6 °C 16.8 °C 1014.8 hPa NE 6.9 km/h 8 km/h 34.9% 0 mm 795 W/m2
15:29 34.8 °C 17.8 °C 1014.8 hPa ENE 7.4 km/h 8 km/h 36.5% 0 mm 737 W/m2
15:34 34.9 °C 16.8 °C 1014.8 hPa NE 5.6 km/h 11.3 km/h 34.2% 0 mm 706 W/m2
15:39 34.6 °C 16.6 °C 1014.8 hPa ENE 7.6 km/h 6.4 km/h 34.4% 0 mm 699 W/m2
15:44 34.5 °C 17.5 °C 1014.8 hPa ENE 10.5 km/h 10.5 km/h 36.5% 0 mm 704 W/m2
15:49 34.6 °C 17.1 °C 1014.4 hPa East 13.8 km/h 14.5 km/h 35.6% 0 mm 704 W/m2
15:54 34.7 °C 17.2 °C 1014.8 hPa ENE 13.7 km/h 9 km/h 35.6% 0 mm 659 W/m2
15:59 34.4 °C 16.5 °C 1014.8 hPa ENE 9.8 km/h 16.1 km/h 34.6% 0 mm 659 W/m2
16:04 34.1 °C 16.3 °C 1014.4 hPa ESE 10.6 km/h 12.9 km/h 34.8% 0 mm 639 W/m2
16:09 34.3 °C 17.2 °C 1014.4 hPa ESE 9.2 km/h 11.3 km/h 36.3% 0 mm 618 W/m2
16:14 34.4 °C 16.7 °C 1014.4 hPa ENE 10.9 km/h 12.9 km/h 35% 0 mm 613 W/m2
16:19 34.4 °C 16.7 °C 1014.4 hPa ENE 6.8 km/h 12.9 km/h 34.7% 0 mm 613 W/m2
16:24 34.4 °C 16.4 °C 1014.4 hPa NE 8.4 km/h 8 km/h 34.3% 0 mm 572 W/m2
16:29 34.6 °C 17.3 °C 1014.4 hPa North 7.1 km/h 9.7 km/h 35.9% 0 mm 570 W/m2
16:34 34.7 °C 17.5 °C 1014.4 hPa North 12.4 km/h 10.1 km/h 36.2% 0 mm 552 W/m2
16:39 34.8 °C 16.9 °C 1014.4 hPa North 9.5 km/h 16.1 km/h 34.8% 0 mm 530 W/m2
16:44 34.7 °C 16.9 °C 1014.4 hPa North 7.2 km/h 9.7 km/h 34.8% 0 mm 524 W/m2
16:49 34.7 °C 16.7 °C 1014.4 hPa NNE 5.6 km/h 8 km/h 34.4% 0 mm 487 W/m2
16:54 34.7 °C 16.8 °C 1014.4 hPa NNE 9.2 km/h 9.7 km/h 34.6% 0 mm 453 W/m2
16:59 34.7 °C 16.7 °C 1014.1 hPa North 11.3 km/h 11.3 km/h 34.5% 0 mm 414 W/m2
17:04 34.5 °C 16.8 °C 1014.1 hPa North 8 km/h 5.8 km/h 35% 0 mm 135 W/m2
17:09 34.2 °C 16.4 °C 1014.1 hPa North 6.8 km/h 9.7 km/h 34.6% 0 mm 162 W/m2
17:13 33.8 °C 16.4 °C 1014.1 hPa North 3.7 km/h 8 km/h 35.4% 0 mm 126 W/m2
17:19 33.6 °C 16.7 °C 1014.1 hPa North 3.7 km/h 4.8 km/h 36.6% 0 mm 124 W/m2
17:24 33.4 °C 16.7 °C 1014.1 hPa NNW 2.3 km/h 3.2 km/h 37% 0 mm 141 W/m2
17:29 33.2 °C 16.6 °C 1014.1 hPa NNW 0.2 km/h 3.2 km/h 37.2% 0 mm 253 W/m2
17:34 33 °C 16.2 °C 1014.1 hPa WNW 2.4 km/h 2.1 km/h 36.5% 0 mm 316 W/m2
17:39 33.1 °C 15.8 °C 1014.1 hPa SW 3.2 km/h 1.8 km/h 35.4% 0 mm 309 W/m2
17:44 33.2 °C 15.9 °C 1014.1 hPa ESE 4.7 km/h 4.8 km/h 35.7% 0 mm 302 W/m2
17:49 33.2 °C 15.6 °C 1014.1 hPa East 3.9 km/h 4.8 km/h 34.8% 0 mm 292 W/m2
17:54 33.2 °C 15.3 °C 1014.1 hPa ESE 5 km/h 4.8 km/h 34.3% 0 mm 281 W/m2
17:59 33.2 °C 16.2 °C 1014.1 hPa SE 5.6 km/h 4.8 km/h 36.2% 0 mm 274 W/m2
18:04 33.4 °C 16.7 °C 1014.1 hPa ENE 6 km/h 8 km/h 37% 0 mm 262 W/m2
18:09 33.6 °C 17.1 °C 1014.1 hPa NNE 4.2 km/h 8 km/h 37.4% 0 mm 249 W/m2
18:14 33.8 °C 17.4 °C 1014.1 hPa North 6.1 km/h 5 km/h 37.7% 0 mm 233 W/m2
18:19 33.9 °C 17.3 °C 1013.8 hPa North 11.3 km/h 9.7 km/h 37.3% 0 mm 217 W/m2
18:24 33.8 °C 17.1 °C 1014.1 hPa North 9.8 km/h 8.7 km/h 37% 0 mm 204 W/m2
18:29 33.7 °C 17.3 °C 1014.1 hPa NNE 6.6 km/h 12.9 km/h 37.7% 0 mm 180 W/m2
18:34 33.6 °C 17.3 °C 1014.1 hPa NNE 6.4 km/h 8 km/h 38% 0 mm 158 W/m2
18:39 33.6 °C 17.2 °C 1014.1 hPa NNE 4.7 km/h 8 km/h 37.9% 0 mm 136 W/m2
18:44 33.5 °C 16.9 °C 1014.1 hPa NNE 5.5 km/h 6.4 km/h 37.3% 0 mm 115 W/m2
18:49 33.3 °C 16.8 °C 1013.8 hPa NNE 6.4 km/h 8 km/h 37.5% 0 mm 101 W/m2
18:54 33.1 °C 16.9 °C 1013.8 hPa NNE 3.5 km/h 8 km/h 38% 0 mm 87 W/m2
18:59 33 °C 16.9 °C 1014.1 hPa North 3.5 km/h 3.2 km/h 38.3% 0 mm 76 W/m2
19:04 32.8 °C 17.1 °C 1014.1 hPa NNW 2.1 km/h 3.2 km/h 39% 0 mm 64 W/m2
19:09 32.7 °C 17.2 °C 1014.1 hPa NW 2.7 km/h 0.6 km/h 39.6% 0 mm 55 W/m2
19:14 32.3 °C 17 °C 1014.1 hPa NNW 3.5 km/h 1.4 km/h 40% 0 mm 44 W/m2
19:19 32.1 °C 16.9 °C 1014.1 hPa North 3.4 km/h 3.2 km/h 40.4% 0 mm 37 W/m2
19:24 31.8 °C 17.1 °C 1014.1 hPa North 3.4 km/h 4.8 km/h 41.6% 0 mm 31 W/m2
19:29 31.4 °C 17 °C 1014.1 hPa North 2.7 km/h 3.2 km/h 42.2% 0 mm 25 W/m2
19:34 31 °C 16.9 °C 1014.1 hPa North 2.1 km/h 3.2 km/h 42.8% 0 mm 19 W/m2
19:39 30.7 °C 16.8 °C 1014.1 hPa North 3.1 km/h 3.2 km/h 43.5% 0 mm 14 W/m2
19:44 30.3 °C 16.7 °C 1014.1 hPa North 1.6 km/h 3.2 km/h 44% 0 mm 11 W/m2
19:49 29.9 °C 16.7 °C 1014.1 hPa NNW 1.9 km/h 1.6 km/h 44.8% 0 mm 7 W/m2
19:54 29.6 °C 17.1 °C 1014.1 hPa SW 1.9 km/h 1.6 km/h 47% 0 mm 4 W/m2
19:59 29.2 °C 17.1 °C 1014.1 hPa SW 1.9 km/h 1.8 km/h 48% 0 mm 3 W/m2
20:04 28.8 °C 16.8 °C 1014.1 hPa West 0.6 km/h 3.2 km/h 48% 0 mm 1 W/m2
20:09 28.5 °C 16.7 °C 1014.4 hPa West 2.4 km/h 3.2 km/h 49% 0 mm 0 W/m2
20:14 28.2 °C 16.7 °C 1014.4 hPa WSW 4 km/h 3.5 km/h 49.5% 0 mm 0 W/m2
20:19 27.9 °C 16.4 °C 1014.4 hPa WSW 4.5 km/h 4.8 km/h 49.8% 0 mm 0 W/m2
20:24 27.6 °C 16.2 °C 1014.4 hPa WSW 4.8 km/h 4.8 km/h 50% 0 mm 0 W/m2
20:29 27.1 °C 16.3 °C 1014.4 hPa WSW 4.2 km/h 4.8 km/h 51.6% 0 mm 0 W/m2
20:34 26.7 °C 16.1 °C 1014.4 hPa SW 5.6 km/h 4.8 km/h 52.4% 0 mm 0 W/m2
20:39 26.3 °C 16 °C 1014.4 hPa SW 5.8 km/h 6.4 km/h 53.3% 0 mm 0 W/m2
20:44 26 °C 15.9 °C 1014.4 hPa SW 5.8 km/h 6.4 km/h 54% 0 mm 0 W/m2
20:49 25.7 °C 15.8 °C 1014.4 hPa WSW 5.8 km/h 5 km/h 54.3% 0 mm 0 W/m2
20:54 25.5 °C 15.6 °C 1014.4 hPa WSW 4.5 km/h 6.4 km/h 54.2% 0 mm 0 W/m2
20:59 25.3 °C 15.6 °C 1014.8 hPa WSW 6.6 km/h 6.4 km/h 55% 0 mm 0 W/m2
21:04 25 °C 15.3 °C 1014.8 hPa WSW 7.6 km/h 8 km/h 55% 0 mm 0 W/m2
21:09 24.8 °C 15.4 °C 1014.8 hPa West 6 km/h 5.5 km/h 56.2% 0 mm 0 W/m2
21:14 24.5 °C 15.5 °C 1014.8 hPa West 4 km/h 6.4 km/h 57.2% 0 mm 0 W/m2
21:19 24.3 °C 15.4 °C 1014.8 hPa WSW 4.3 km/h 4.8 km/h 57.6% 0 mm 0 W/m2
21:24 24.1 °C 15.5 °C 1014.8 hPa WSW 5.6 km/h 5 km/h 58.7% 0 mm 0 W/m2
21:29 23.8 °C 15.3 °C 1014.8 hPa West 5 km/h 3.2 km/h 59% 0 mm 0 W/m2
21:34 23.6 °C 15.3 °C 1014.8 hPa WNW 3.7 km/h 4.8 km/h 59.8% 0 mm 0 W/m2
21:39 23.3 °C 15.2 °C 1014.8 hPa WNW 3.7 km/h 3.2 km/h 60% 0 mm 0 W/m2
21:44 23.2 °C 15 °C 1014.8 hPa West 4 km/h 3.2 km/h 60% 0 mm 0 W/m2
21:49 22.9 °C 14.9 °C 1014.8 hPa WSW 5.6 km/h 4.8 km/h 60.8% 0 mm 0 W/m2
21:54 22.7 °C 15.1 °C 1014.8 hPa WSW 5.8 km/h 4.7 km/h 62% 0 mm 0 W/m2
21:59 22.5 °C 15 °C 1014.8 hPa WSW 5.3 km/h 6.4 km/h 62.6% 0 mm 0 W/m2
22:04 22.2 °C 14.8 °C 1015.1 hPa WSW 5 km/h 4.7 km/h 63% 0 mm 0 W/m2
22:09 22.1 °C 14.7 °C 1014.8 hPa WSW 5.6 km/h 6.4 km/h 63% 0 mm 0 W/m2
22:14 21.8 °C 14.5 °C 1015.1 hPa WNW 4.7 km/h 6.4 km/h 63% 0 mm 0 W/m2
22:19 21.8 °C 14.6 °C 1015.1 hPa WNW 4.3 km/h 4.8 km/h 63.6% 0 mm 0 W/m2
22:24 21.7 °C 14.6 °C 1015.1 hPa WSW 3.7 km/h 4.8 km/h 64% 0 mm 0 W/m2
22:29 21.6 °C 14.5 °C 1015.1 hPa SW 3.7 km/h 3.2 km/h 64.3% 0 mm 0 W/m2
22:34 21.3 °C 14.3 °C 1015.1 hPa SW 3.7 km/h 2.9 km/h 64% 0 mm 0 W/m2
22:39 21.2 °C 14.3 °C 1015.1 hPa SW 3.7 km/h 2.9 km/h 64.7% 0 mm 0 W/m2
22:44 21.1 °C 14.3 °C 1015.1 hPa WSW 1.9 km/h 3.2 km/h 65% 0 mm 0 W/m2
22:49 20.9 °C 14.6 °C 1015.1 hPa West 1 km/h 1.6 km/h 66.8% 0 mm 0 W/m2
22:54 20.8 °C 14.5 °C 1015.1 hPa Calm   1.6 km/h 67% 0 mm 0 W/m2
22:59 20.7 °C 14.3 °C 1015.1 hPa Calm     67% 0 mm 0 W/m2
23:04 20.6 °C 14.4 °C 1015.1 hPa North 0.8 km/h 0.6 km/h 67.8% 0 mm 0 W/m2
23:09 20.5 °C 14.4 °C 1015.1 hPa NNW 1.9 km/h 1.6 km/h 68.2% 0 mm 0 W/m2
23:14 20.3 °C 14.4 °C 1015.1 hPa West 0.5 km/h 1.6 km/h 69% 0 mm 0 W/m2
23:19 20.2 °C 14.3 °C 1015.1 hPa West 3.4 km/h 3.2 km/h 69% 0 mm 0 W/m2
23:24 20.1 °C 14.2 °C 1015.1 hPa North 3.4 km/h 3.2 km/h 69% 0 mm 0 W/m2
23:29 20 °C 14.3 °C 1015.1 hPa NNE 1.8 km/h 3.2 km/h 69.8% 0 mm 0 W/m2
23:34 19.9 °C 14.3 °C 1015.1 hPa WNW 2.1 km/h 3.2 km/h 70% 0 mm 0 W/m2
23:39 19.7 °C 14.1 °C 1015.1 hPa Calm   1.6 km/h 70% 0 mm 0 W/m2
23:44 19.6 °C 14.2 °C 1015.1 hPa Calm     71.4% 0 mm 0 W/m2
23:49 19.4 °C 14.2 °C 1015.1 hPa West 1.8 km/h 1.8 km/h 72% 0 mm 0 W/m2
23:54 19.2 °C 14.1 °C 1015.1 hPa West 1.3 km/h 1.6 km/h 72% 0 mm 0 W/m2
23:59 19.1 °C 14.1 °C 1015.5 hPa Calm   1.6 km/h 72.6% 0 mm 0 W/m2
Knjazevac, Serbia
Compliments of Weather Underground - 4 mb